Time;durP1;ratioP1;P1;durP2;ratioP2;P2;SDS_P1;SDS_P2;PMS_P1;PMS_P2;Temp;Humidity;BMP_temperature;BMP_pressure;BME280_temperature;BME280_humidity;BME280_pressure;Samples;Min_cycle;Max_cycle;Signal;HPM_P1;HPM_P2
2022/08/26 00:01:15;;;;;;;5.33;4.83;;;;;;;;;;5053144;28;20290;-71
2022/08/26 00:03:42;;;;;;;5.87;5.33;;;;;;;;;;5053568;28;20226;-72
2022/08/26 00:06:08;;;;;;;5.53;4.80;;;;;;;;;;5053356;28;20637;-72
2022/08/26 00:08:34;;;;;;;6.77;5.10;;;;;;;;;;5053298;28;20226;-72
2022/08/26 00:11:01;;;;;;;5.63;5.13;;;;;;;;;;5053411;28;20230;-72
2022/08/26 00:13:28;;;;;;;7.40;5.43;;;;;;;;;;5052875;28;20191;-72
2022/08/26 00:15:54;;;;;;;6.10;5.37;;;;;;;;;;5052759;28;20206;-72
2022/08/26 00:18:20;;;;;;;5.83;5.23;;;;;;;;;;5052727;28;20202;-72
2022/08/26 00:20:47;;;;;;;8.10;5.63;;;;;;;;;;5053118;28;20203;-72
2022/08/26 00:23:13;;;;;;;7.07;5.37;;;;;;;;;;5052952;28;20196;-72
2022/08/26 00:25:40;;;;;;;5.90;5.27;;;;;;;;;;5053050;28;20206;-72
2022/08/26 00:28:06;;;;;;;6.83;5.90;;;;;;;;;;5053127;28;20278;-72
2022/08/26 00:30:33;;;;;;;6.77;6.00;;;;;;;;;;5052646;28;20326;-72
2022/08/26 00:33:01;;;;;;;7.33;6.00;;;;;;;;;;5052842;28;20276;-71
2022/08/26 00:35:27;;;;;;;6.43;5.83;;;;;;;;;;5052097;28;20685;-72
2022/08/26 00:37:54;;;;;;;6.40;5.77;;;;;;;;;;5052812;28;20200;-72
2022/08/26 00:40:21;;;;;;;6.63;4.73;;;;;;;;;;5052642;28;20269;-72
2022/08/26 00:42:48;;;;;;;6.63;6.00;;;;;;;;;;5052471;28;20641;-72
2022/08/26 00:45:14;;;;;;;5.50;5.00;;;;;;;;;;5052322;28;20211;-72
2022/08/26 00:47:45;;;;;;;6.37;5.43;;;;;;;;;;5052346;28;20210;-72
2022/08/26 00:50:12;;;;;;;5.97;5.33;;;;;;;;;;5051826;28;20264;-72
2022/08/26 00:52:39;;;;;;;6.53;5.87;;;;;;;;;;5052217;28;20228;-72
2022/08/26 00:55:08;;;;;;;6.43;5.33;;;;;;;;;;5052432;28;20199;-72
2022/08/26 00:57:35;;;;;;;6.33;5.53;;;;;;;;;;5052342;28;20188;-72
2022/08/26 01:00:02;;;;;;;7.03;5.67;;;;;;;;;;5052229;28;20672;-72
2022/08/26 01:02:28;;;;;;;6.13;5.53;;;;;;;;;;5052300;28;20196;-72
2022/08/26 01:04:58;;;;;;;6.60;5.57;;;;;;;;;;5052096;28;20214;-72
2022/08/26 01:07:25;;;;;;;6.47;5.83;;;;;;;;;;5052082;28;20227;-73
2022/08/26 01:09:51;;;;;;;6.17;5.40;;;;;;;;;;5051943;28;20191;-73
2022/08/26 01:12:17;;;;;;;6.87;6.17;;;;;;;;;;5052204;28;20227;-72
2022/08/26 01:14:44;;;;;;;8.70;6.17;;;;;;;;;;5052330;28;20294;-73
2022/08/26 01:17:10;;;;;;;6.30;5.67;;;;;;;;;;5051390;28;20223;-72
2022/08/26 01:19:39;;;;;;;6.23;5.63;;;;;;;;;;5051630;28;20557;-72
2022/08/26 01:22:08;;;;;;;5.80;5.30;;;;;;;;;;5051605;28;20195;-72
2022/08/26 01:24:37;;;;;;;6.23;5.40;;;;;;;;;;5051930;28;20203;-72
2022/08/26 01:27:04;;;;;;;6.10;5.50;;;;;;;;;;5052151;28;20618;-72
2022/08/26 01:29:32;;;;;;;6.57;5.70;;;;;;;;;;5051811;28;20654;-73
2022/08/26 01:31:58;;;;;;;6.47;5.67;;;;;;;;;;5052212;28;20231;-72
2022/08/26 01:34:25;;;;;;;7.30;5.83;;;;;;;;;;5052087;28;20650;-73
2022/08/26 01:36:53;;;;;;;7.70;6.30;;;;;;;;;;5052079;28;20206;-73
2022/08/26 01:39:20;;;;;;;6.57;5.73;;;;;;;;;;5051384;28;20930;-72
2022/08/26 01:41:48;;;;;;;6.77;5.33;;;;;;;;;;5052042;28;20245;-72
2022/08/26 01:44:16;;;;;;;6.10;5.53;;;;;;;;;;5052344;28;20211;-72
2022/08/26 01:46:42;;;;;;;9.47;5.87;;;;;;;;;;5052894;28;20290;-73
2022/08/26 01:49:09;;;;;;;7.10;5.90;;;;;;;;;;5056064;28;20198;-72
2022/08/26 01:51:37;;;;;;;7.77;5.93;;;;;;;;;;5055540;28;20259;-73
2022/08/26 01:54:03;;;;;;;7.60;5.80;;;;;;;;;;5055800;28;20203;-72
2022/08/26 01:56:29;;;;;;;7.50;6.47;;;;;;;;;;5055713;28;20207;-72
2022/08/26 01:58:57;;;;;;;7.27;6.30;;;;;;;;;;5055719;28;20191;-72
2022/08/26 02:01:24;;;;;;;6.70;6.00;;;;;;;;;;5055285;28;20768;-72
2022/08/26 02:03:54;;;;;;;6.33;5.67;;;;;;;;;;5055064;28;20298;-72
2022/08/26 02:06:20;;;;;;;7.00;6.00;;;;;;;;;;5054567;28;20267;-73
2022/08/26 02:08:48;;;;;;;8.27;5.67;;;;;;;;;;5054180;28;20204;-73
2022/08/26 02:11:15;;;;;;;6.30;5.70;;;;;;;;;;5054451;28;20318;-73
2022/08/26 02:13:43;;;;;;;6.70;6.07;;;;;;;;;;5055233;28;20339;-72
2022/08/26 02:16:11;;;;;;;6.43;5.80;;;;;;;;;;5055308;28;20667;-72
2022/08/26 02:18:38;;;;;;;6.50;5.87;;;;;;;;;;5055254;28;20750;-73
2022/08/26 02:21:04;;;;;;;6.87;5.70;;;;;;;;;;5055237;28;20211;-73
2022/08/26 02:23:30;;;;;;;6.37;5.80;;;;;;;;;;5054946;28;20206;-73
2022/08/26 02:25:59;;;;;;;9.37;6.10;;;;;;;;;;5055155;28;20210;-73
2022/08/26 02:28:27;;;;;;;6.80;5.63;;;;;;;;;;5054952;28;20285;-73
2022/08/26 02:30:53;;;;;;;5.77;5.20;;;;;;;;;;5055129;28;20231;-72
2022/08/26 02:33:20;;;;;;;6.37;5.77;;;;;;;;;;5054993;28;20406;-72
2022/08/26 02:35:46;;;;;;;6.00;5.40;;;;;;;;;;5054916;28;20203;-73
2022/08/26 02:38:12;;;;;;;6.50;5.90;;;;;;;;;;5054852;28;20519;-73
2022/08/26 02:40:39;;;;;;;6.57;5.90;;;;;;;;;;5054745;28;20203;-73
2022/08/26 02:43:06;;;;;;;6.27;5.67;;;;;;;;;;5054753;28;20238;-72
2022/08/26 02:45:32;;;;;;;6.33;5.73;;;;;;;;;;5054390;28;20676;-73
2022/08/26 02:47:59;;;;;;;6.60;6.00;;;;;;;;;;5054087;28;20268;-73
2022/08/26 02:50:27;;;;;;;7.37;5.73;;;;;;;;;;5054526;28;20196;-73
2022/08/26 02:52:53;;;;;;;6.90;5.47;;;;;;;;;;5054344;28;20231;-73
2022/08/26 02:55:19;;;;;;;7.77;6.23;;;;;;;;;;5054589;28;20199;-73
2022/08/26 02:57:45;;;;;;;6.63;5.80;;;;;;;;;;5054208;28;20184;-73
2022/08/26 03:00:13;;;;;;;7.57;6.07;;;;;;;;;;5054066;28;20234;-72
2022/08/26 03:02:39;;;;;;;7.03;6.37;;;;;;;;;;5054354;28;20203;-72
2022/08/26 03:05:06;;;;;;;7.40;5.80;;;;;;;;;;5054364;28;20552;-73
2022/08/26 03:07:33;;;;;;;6.50;5.90;;;;;;;;;;5054092;28;20246;-72
2022/08/26 03:09:59;;;;;;;6.40;5.60;;;;;;;;;;5054428;28;20207;-73
2022/08/26 03:12:25;;;;;;;6.00;5.37;;;;;;;;;;5054236;28;20235;-73
2022/08/26 03:14:52;;;;;;;6.97;6.03;;;;;;;;;;5054039;28;20294;-72
2022/08/26 03:17:18;;;;;;;8.17;6.07;;;;;;;;;;5052930;28;20503;-72
2022/08/26 03:19:44;;;;;;;6.60;5.80;;;;;;;;;;5054083;28;20306;-72
2022/08/26 03:22:10;;;;;;;7.60;5.80;;;;;;;;;;5054050;28;20546;-72
2022/08/26 03:24:37;;;;;;;6.37;5.77;;;;;;;;;;5053992;28;20191;-73
2022/08/26 03:27:04;;;;;;;6.33;5.70;;;;;;;;;;5054001;28;20286;-73
2022/08/26 03:32:15;;;;;;;6.77;6.07;;;;;;;;;;5053842;28;20319;-73
2022/08/26 03:34:41;;;;;;;6.33;5.77;;;;;;;;;;5053874;28;20306;-73
2022/08/26 03:37:07;;;;;;;6.57;5.83;;;;;;;;;;5053746;28;20285;-73
2022/08/26 03:39:34;;;;;;;6.87;6.17;;;;;;;;;;5053736;28;20200;-73
2022/08/26 03:42:01;;;;;;;8.77;6.43;;;;;;;;;;5053772;28;20200;-73
2022/08/26 03:44:27;;;;;;;7.20;6.10;;;;;;;;;;5053706;28;20205;-73
2022/08/26 03:46:53;;;;;;;7.33;6.63;;;;;;;;;;5053774;28;20681;-72
2022/08/26 03:49:19;;;;;;;9.07;6.33;;;;;;;;;;5053601;28;20195;-72
2022/08/26 03:51:46;;;;;;;6.60;5.93;;;;;;;;;;5053281;28;20230;-72
2022/08/26 03:54:12;;;;;;;6.13;5.40;;;;;;;;;;5053491;28;20226;-73
2022/08/26 03:56:38;;;;;;;6.70;5.77;;;;;;;;;;5053285;28;20199;-72
2022/08/26 03:59:06;;;;;;;8.13;6.27;;;;;;;;;;5053355;28;20268;-73
2022/08/26 04:01:32;;;;;;;6.67;6.07;;;;;;;;;;5053245;28;20211;-74
2022/08/26 04:03:58;;;;;;;6.63;5.90;;;;;;;;;;5053302;28;20282;-73
2022/08/26 04:06:25;;;;;;;6.63;5.93;;;;;;;;;;5053038;28;20195;-72
2022/08/26 04:08:51;;;;;;;7.67;6.17;;;;;;;;;;5051104;28;20199;-73
2022/08/26 04:11:18;;;;;;;6.50;5.87;;;;;;;;;;5050622;28;20202;-72
2022/08/26 04:13:45;;;;;;;8.37;6.07;;;;;;;;;;5052800;28;20568;-73
2022/08/26 04:16:12;;;;;;;8.23;6.13;;;;;;;;;;5053228;28;20199;-72
2022/08/26 04:18:38;;;;;;;7.00;6.20;;;;;;;;;;5051990;28;20205;-73
2022/08/26 04:21:04;;;;;;;9.83;6.00;;;;;;;;;;5052872;28;20208;-72
2022/08/26 04:23:30;;;;;;;6.60;5.90;;;;;;;;;;5052163;28;20396;-73
2022/08/26 04:25:56;;;;;;;7.10;6.40;;;;;;;;;;5052367;28;20252;-73
2022/08/26 04:28:23;;;;;;;7.37;6.13;;;;;;;;;;5052709;28;20611;-73
2022/08/26 04:30:49;;;;;;;8.00;6.60;;;;;;;;;;5052251;28;20239;-73
2022/08/26 04:33:17;;;;;;;8.40;6.37;;;;;;;;;;5052529;28;20219;-73
2022/08/26 04:35:44;;;;;;;9.67;7.07;;;;;;;;;;5052582;28;20204;-73
2022/08/26 04:38:09;;;;;;;7.37;6.20;;;;;;;;;;5052591;28;20567;-73
2022/08/26 04:40:36;;;;;;;8.20;6.60;;;;;;;;;;5052437;28;20198;-73
2022/08/26 04:43:02;;;;;;;8.50;6.40;;;;;;;;;;5052600;28;20320;-73
2022/08/26 04:45:28;;;;;;;7.47;6.50;;;;;;;;;;5052453;28;20669;-73
2022/08/26 04:47:55;;;;;;;7.77;6.17;;;;;;;;;;5052428;28;20214;-72
2022/08/26 04:50:23;;;;;;;8.33;6.63;;;;;;;;;;5052355;28;20203;-72
2022/08/26 04:52:49;;;;;;;9.03;6.47;;;;;;;;;;5052098;28;20310;-73
2022/08/26 04:55:15;;;;;;;8.83;6.23;;;;;;;;;;5052232;28;20298;-73
2022/08/26 04:57:41;;;;;;;7.43;6.70;;;;;;;;;;5052253;28;20820;-73
2022/08/26 05:00:11;;;;;;;7.23;6.53;;;;;;;;;;5052226;28;20239;-73
2022/08/26 05:02:37;;;;;;;8.13;7.43;;;;;;;;;;5051984;28;20681;-72
2022/08/26 05:05:05;;;;;;;7.37;6.30;;;;;;;;;;5052125;28;20264;-73
2022/08/26 05:07:34;;;;;;;7.43;6.67;;;;;;;;;;5051862;28;20226;-73
2022/08/26 05:10:00;;;;;;;6.73;6.07;;;;;;;;;;5052080;28;20195;-73
2022/08/26 05:12:27;;;;;;;7.93;6.57;;;;;;;;;;5051929;28;20231;-74
2022/08/26 05:14:53;;;;;;;7.60;6.80;;;;;;;;;;5051773;28;20207;-73
2022/08/26 05:17:19;;;;;;;10.20;7.10;;;;;;;;;;5052007;28;20211;-73
2022/08/26 05:19:46;;;;;;;8.20;6.43;;;;;;;;;;5051833;28;20691;-73
2022/08/26 05:22:12;;;;;;;8.50;6.30;;;;;;;;;;5051283;28;20210;-73
2022/08/26 05:24:40;;;;;;;8.37;6.33;;;;;;;;;;5051792;28;20199;-71
2022/08/26 05:27:06;;;;;;;10.57;6.67;;;;;;;;;;5051666;28;20257;-71
2022/08/26 05:29:32;;;;;;;8.70;7.00;;;;;;;;;;5049516;28;20199;-72
2022/08/26 05:32:00;;;;;;;12.03;6.60;;;;;;;;;;5050981;28;20230;-72
2022/08/26 05:34:26;;;;;;;8.27;6.67;;;;;;;;;;5051647;28;20206;-72
2022/08/26 05:36:52;;;;;;;8.27;6.03;;;;;;;;;;5050275;28;20203;-72
2022/08/26 05:39:18;;;;;;;10.27;6.80;;;;;;;;;;5051511;28;20199;-71
2022/08/26 05:41:46;;;;;;;8.67;6.70;;;;;;;;;;5051599;28;20689;-71
2022/08/26 05:44:13;;;;;;;8.10;6.93;;;;;;;;;;5050432;28;20213;-71
2022/08/26 05:46:40;;;;;;;7.83;6.20;;;;;;;;;;5051277;28;20202;-76
2022/08/26 05:49:06;;;;;;;9.03;6.83;;;;;;;;;;5051765;28;20202;-75
2022/08/26 05:51:32;;;;;;;9.07;6.30;;;;;;;;;;5051229;28;20203;-74
2022/08/26 05:54:01;;;;;;;7.33;5.97;;;;;;;;;;5051862;28;20282;-75
2022/08/26 05:56:27;;;;;;;9.20;6.40;;;;;;;;;;5051477;28;20303;-75
2022/08/26 05:58:55;;;;;;;9.83;6.30;;;;;;;;;;5051752;28;20305;-75
2022/08/26 06:01:24;;;;;;;6.97;6.20;;;;;;;;;;5051432;28;20701;-75
2022/08/26 06:03:50;;;;;;;8.40;6.33;;;;;;;;;;5051262;28;20254;-75
2022/08/26 06:06:18;;;;;;;9.10;6.70;;;;;;;;;;5050262;28;20204;-75
2022/08/26 06:08:44;;;;;;;9.23;6.43;;;;;;;;;;5051557;28;20195;-75
2022/08/26 06:11:11;;;;;;;10.33;7.17;;;;;;;;;;5051107;28;20622;-75
2022/08/26 06:13:38;;;;;;;8.20;6.67;;;;;;;;;;5051183;28;20223;-74
2022/08/26 06:16:06;;;;;;;12.13;7.03;;;;;;;;;;5051264;28;20207;-75
2022/08/26 06:18:35;;;;;;;11.17;6.90;;;;;;;;;;5051181;28;20214;-75
2022/08/26 06:21:02;;;;;;;11.83;7.27;;;;;;;;;;5051425;28;20203;-74
2022/08/26 06:26:14;;;;;;;9.03;6.43;;;;;;;;;;5051431;28;20624;-75
2022/08/26 06:28:40;;;;;;;10.37;6.50;;;;;;;;;;5051149;28;20218;-74
2022/08/26 06:31:07;;;;;;;11.53;6.93;;;;;;;;;;5051110;28;20604;-75
2022/08/26 06:33:34;;;;;;;8.00;6.20;;;;;;;;;;5051389;28;20242;-71
2022/08/26 06:36:00;;;;;;;9.70;6.10;;;;;;;;;;5054716;28;20621;-70
2022/08/26 06:38:26;;;;;;;8.97;6.67;;;;;;;;;;5054377;28;20206;-70
2022/08/26 06:40:53;;;;;;;9.33;6.30;;;;;;;;;;5054619;28;20204;-69
2022/08/26 06:43:21;;;;;;;8.13;6.27;;;;;;;;;;5054641;28;20231;-71
2022/08/26 06:45:47;;;;;;;13.17;7.20;;;;;;;;;;5054267;28;20215;-71
2022/08/26 06:48:16;;;;;;;7.90;6.33;;;;;;;;;;5053333;28;20282;-71
2022/08/26 06:50:43;;;;;;;8.07;6.07;;;;;;;;;;5054175;28;20207;-72
2022/08/26 06:53:10;;;;;;;8.30;6.10;;;;;;;;;;5054330;28;20314;-71
2022/08/26 06:55:38;;;;;;;8.77;6.10;;;;;;;;;;5054411;28;20282;-73
2022/08/26 06:58:05;;;;;;;8.57;6.00;;;;;;;;;;5053565;28;20709;-72
2022/08/26 07:00:32;;;;;;;6.57;5.70;;;;;;;;;;5054035;28;20206;-74
2022/08/26 07:02:58;;;;;;;8.27;6.10;;;;;;;;;;5054347;28;20205;-72
2022/08/26 07:05:25;;;;;;;6.73;5.97;;;;;;;;;;5053868;28;20273;-73
2022/08/26 07:07:51;;;;;;;8.17;5.97;;;;;;;;;;5053686;28;20728;-73
2022/08/26 07:10:17;;;;;;;6.33;5.70;;;;;;;;;;5054575;28;20202;-74
2022/08/26 07:12:44;;;;;;;8.87;6.13;;;;;;;;;;5054162;28;20242;-73
2022/08/26 07:15:10;;;;;;;11.23;6.40;;;;;;;;;;5054193;28;20234;-73
2022/08/26 07:17:36;;;;;;;8.47;6.07;;;;;;;;;;5053946;28;20204;-75
2022/08/26 07:20:03;;;;;;;8.13;6.00;;;;;;;;;;5053529;28;20195;-75
2022/08/26 07:22:30;;;;;;;12.30;6.27;;;;;;;;;;5054006;28;20202;-73
2022/08/26 07:24:56;;;;;;;7.93;5.77;;;;;;;;;;5054142;28;20209;-73
2022/08/26 07:27:22;;;;;;;9.30;6.00;;;;;;;;;;5053894;28;20670;-78
2022/08/26 07:29:48;;;;;;;9.50;6.63;;;;;;;;;;5052859;28;20239;-74
2022/08/26 07:32:14;;;;;;;7.47;6.30;;;;;;;;;;5053367;28;20634;-73
2022/08/26 07:34:41;;;;;;;9.37;6.10;;;;;;;;;;5053314;28;20222;-73
2022/08/26 07:37:07;;;;;;;7.17;5.60;;;;;;;;;;5052775;28;20257;-73
2022/08/26 07:39:34;;;;;;;8.53;6.37;;;;;;;;;;5052667;28;20277;-77
2022/08/26 07:42:01;;;;;;;6.07;5.50;;;;;;;;;;5053041;28;20202;-77
2022/08/26 07:44:27;;;;;;;6.93;5.83;;;;;;;;;;5052809;28;20278;-77
2022/08/26 07:46:53;;;;;;;6.37;5.67;;;;;;;;;;5053398;28;20203;-73
2022/08/26 07:49:19;;;;;;;9.03;6.53;;;;;;;;;;5053464;28;20253;-75
2022/08/26 07:51:45;;;;;;;6.90;6.20;;;;;;;;;;5052814;28;20206;-75
2022/08/26 07:54:11;;;;;;;9.30;5.70;;;;;;;;;;5053195;28;20200;-75
2022/08/26 07:56:38;;;;;;;7.40;5.80;;;;;;;;;;5052653;28;20200;-75
2022/08/26 07:59:04;;;;;;;11.47;6.33;;;;;;;;;;5053079;28;20561;-75
2022/08/26 08:01:30;;;;;;;8.20;6.17;;;;;;;;;;5053268;28;20196;-75
2022/08/26 08:03:57;;;;;;;11.97;6.37;;;;;;;;;;5053186;28;20199;-75
2022/08/26 08:06:24;;;;;;;8.37;6.03;;;;;;;;;;5052416;28;20200;-75
2022/08/26 08:08:50;;;;;;;7.53;6.03;;;;;;;;;;5052895;28;20203;-75
2022/08/26 08:11:16;;;;;;;9.07;6.10;;;;;;;;;;5052515;28;20202;-75
2022/08/26 08:13:43;;;;;;;6.73;6.00;;;;;;;;;;5052806;28;20239;-72
2022/08/26 08:16:09;;;;;;;6.63;5.83;;;;;;;;;;5051246;28;20968;-73
2022/08/26 08:18:35;;;;;;;10.37;5.73;;;;;;;;;;5050978;28;20213;-75
2022/08/26 08:21:02;;;;;;;8.37;6.23;;;;;;;;;;5050856;28;20336;-77
2022/08/26 08:23:28;;;;;;;7.43;5.47;;;;;;;;;;5052783;28;20195;-74
2022/08/26 08:26:00;;;;;;;6.30;5.43;;;;;;;;;;5050754;28;20224;-73
2022/08/26 08:28:26;;;;;;;8.90;5.87;;;;;;;;;;5052182;28;20207;-73
2022/08/26 08:30:53;;;;;;;8.17;5.80;;;;;;;;;;5052042;28;20822;-74
2022/08/26 08:33:19;;;;;;;8.13;6.10;;;;;;;;;;5051180;28;20219;-74
2022/08/26 08:35:47;;;;;;;10.17;5.77;;;;;;;;;;5052268;28;20225;-74
2022/08/26 08:38:13;;;;;;;8.20;5.77;;;;;;;;;;5052333;28;20203;-73
2022/08/26 08:40:39;;;;;;;6.73;5.50;;;;;;;;;;5051936;28;20287;-74
2022/08/26 08:43:06;;;;;;;7.10;5.63;;;;;;;;;;5052053;28;20688;-74
2022/08/26 08:45:34;;;;;;;7.93;5.37;;;;;;;;;;5052057;28;20210;-74
2022/08/26 08:48:03;;;;;;;8.60;6.17;;;;;;;;;;5051768;28;20204;-74
2022/08/26 08:50:31;;;;;;;7.50;6.10;;;;;;;;;;5051635;28;20663;-74
2022/08/26 08:53:03;;;;;;;7.43;5.53;;;;;;;;;;5051293;28;20641;-73
2022/08/26 08:55:34;;;;;;;6.07;5.47;;;;;;;;;;5051701;28;20203;-73
2022/08/26 08:58:02;;;;;;;6.63;5.90;;;;;;;;;;5051211;28;20199;-73
2022/08/26 09:00:33;;;;;;;6.93;5.97;;;;;;;;;;5052374;28;20214;-73
2022/08/26 09:03:01;;;;;;;8.70;5.97;;;;;;;;;;5051264;28;20222;-73
2022/08/26 09:05:30;;;;;;;8.30;5.90;;;;;;;;;;5052086;28;20211;-73
2022/08/26 09:07:58;;;;;;;8.00;5.80;;;;;;;;;;5052063;28;20260;-73
2022/08/26 09:10:28;;;;;;;7.57;5.17;;;;;;;;;;5051939;28;20205;-73
2022/08/26 09:12:54;;;;;;;6.30;5.10;;;;;;;;;;5052195;28;20596;-73
2022/08/26 09:15:23;;;;;;;7.10;5.73;;;;;;;;;;5051778;28;20569;-73
2022/08/26 09:17:53;;;;;;;6.50;5.47;;;;;;;;;;5051863;28;20208;-73
2022/08/26 09:20:24;;;;;;;7.27;5.70;;;;;;;;;;5051977;28;20240;-73
2022/08/26 09:22:52;;;;;;;7.13;5.10;;;;;;;;;;5052054;28;20188;-73
2022/08/26 09:25:18;;;;;;;6.37;5.77;;;;;;;;;;5051108;28;20678;-73
2022/08/26 09:27:45;;;;;;;6.27;5.50;;;;;;;;;;5051425;28;20213;-76
2022/08/26 09:30:13;;;;;;;6.27;5.17;;;;;;;;;;5051082;28;20639;-73
2022/08/26 09:32:39;;;;;;;7.03;5.53;;;;;;;;;;5050995;28;20234;-73
2022/08/26 09:35:07;;;;;;;6.97;5.23;;;;;;;;;;5050366;28;20204;-74
2022/08/26 09:37:34;;;;;;;6.33;5.30;;;;;;;;;;5052056;28;20214;-75
2022/08/26 09:40:19;;;;;;;7.07;5.40;;;;;;;;;;5052170;28;20647;-74
2022/08/26 09:42:45;;;;;;;6.73;5.37;;;;;;;;;;5052105;28;20192;-74
2022/08/26 09:45:11;;;;;;;7.33;5.57;;;;;;;;;;5052085;28;20556;-74
2022/08/26 09:47:39;;;;;;;5.63;5.10;;;;;;;;;;5052041;28;20553;-74
2022/08/26 09:50:09;;;;;;;8.40;5.20;;;;;;;;;;5052086;28;20405;-74
2022/08/26 09:52:35;;;;;;;6.83;5.30;;;;;;;;;;5051905;28;20231;-74
2022/08/26 09:55:04;;;;;;;6.07;5.47;;;;;;;;;;5052003;28;20200;-74
2022/08/26 09:57:32;;;;;;;8.57;4.83;;;;;;;;;;5052040;28;20283;-74
2022/08/26 10:00:00;;;;;;;6.00;5.40;;;;;;;;;;5052019;28;20218;-74
2022/08/26 10:02:37;;;;;;;6.37;5.13;;;;;;;;;;5052036;28;20199;-74
2022/08/26 10:05:05;;;;;;;5.63;5.10;;;;;;;;;;5051173;28;20565;-74
2022/08/26 10:07:39;;;;;;;6.50;5.53;;;;;;;;;;5052201;28;20270;-74
2022/08/26 10:10:08;;;;;;;6.90;5.57;;;;;;;;;;5055230;28;20206;-77
2022/08/26 10:12:37;;;;;;;5.53;5.00;;;;;;;;;;5055419;28;20227;-75
2022/08/26 10:15:08;;;;;;;5.73;5.07;;;;;;;;;;5054819;28;20200;-76
2022/08/26 10:17:37;;;;;;;6.17;4.93;;;;;;;;;;5055174;28;20203;-76
2022/08/26 10:20:05;;;;;;;7.00;5.23;;;;;;;;;;5055206;28;20207;-76
2022/08/26 10:22:34;;;;;;;8.20;5.40;;;;;;;;;;5055437;28;20206;-76
2022/08/26 10:25:03;;;;;;;5.67;4.77;;;;;;;;;;5053831;28;20709;-76
2022/08/26 10:27:34;;;;;;;5.37;4.80;;;;;;;;;;5055569;28;20211;-76
2022/08/26 10:30:03;;;;;;;6.30;5.20;;;;;;;;;;5055383;28;20232;-76
2022/08/26 10:32:34;;;;;;;5.80;4.67;;;;;;;;;;5055368;28;20678;-76
2022/08/26 10:35:00;;;;;;;6.27;4.90;;;;;;;;;;5055498;28;20204;-76
2022/08/26 10:37:29;;;;;;;6.23;4.70;;;;;;;;;;5055291;28;20262;-75
2022/08/26 10:39:59;;;;;;;6.37;5.13;;;;;;;;;;5055267;28;20200;-76
2022/08/26 10:42:27;;;;;;;5.57;4.97;;;;;;;;;;5053176;28;20208;-77
2022/08/26 10:44:54;;;;;;;6.03;4.73;;;;;;;;;;5054799;28;20369;-76
2022/08/26 10:47:24;;;;;;;6.17;5.50;;;;;;;;;;5054366;28;20204;-76
2022/08/26 10:49:52;;;;;;;5.47;4.90;;;;;;;;;;5054268;28;20233;-76
2022/08/26 10:52:21;;;;;;;5.23;4.67;;;;;;;;;;5054517;28;20227;-76
2022/08/26 10:54:52;;;;;;;5.50;4.80;;;;;;;;;;5054522;28;20206;-76
2022/08/26 10:57:21;;;;;;;5.90;4.80;;;;;;;;;;5054451;28;20195;-76
2022/08/26 10:59:51;;;;;;;5.63;4.67;;;;;;;;;;5054361;28;20200;-76
2022/08/26 11:02:20;;;;;;;6.00;4.83;;;;;;;;;;5054600;28;20271;-75
2022/08/26 11:08:13;;;;;;;21.63;7.83;;;;;;;;;;5136450;27;20395;-48
2022/08/26 11:11:02;;;;;;;12.33;7.47;;;;;;;;;;5129533;28;20655;-48
2022/08/26 11:13:52;;;;;;;15.30;7.43;;;;;;;;;;5129796;28;20195;-48
2022/08/26 11:16:31;;;;;;;13.13;7.43;;;;;;;;;;5129462;27;20192;-48
2022/08/26 11:18:57;;;;;;;17.37;7.63;;;;;;;;;;5129537;28;20205;-49
2022/08/26 11:21:47;;;;;;;21.93;7.33;;;;;;;;;;5129369;28;20204;-49
2022/08/26 11:24:31;;;;;;;15.37;7.63;;;;;;;;;;5130102;28;20193;-49
2022/08/26 11:26:58;;;;;;;10.93;6.23;;;;;;;;;;5129615;28;20265;-48
2022/08/26 11:29:40;;;;;;;14.37;6.70;;;;;;;;;;5129531;28;20553;-48
2022/08/26 11:32:22;;;;;;;16.57;7.83;;;;;;;;;;5129485;28;20284;-49
2022/08/26 11:34:56;;;;;;;16.30;6.80;;;;;;;;;;5129565;28;20224;-48
2022/08/26 11:37:25;;;;;;;13.53;6.30;;;;;;;;;;5128609;27;20801;-48
2022/08/26 11:39:53;;;;;;;13.17;6.53;;;;;;;;;;5118623;28;20198;-52
2022/08/26 11:42:25;;;;;;;15.87;7.23;;;;;;;;;;5129392;28;20206;-51
2022/08/26 11:44:51;;;;;;;18.40;7.00;;;;;;;;;;5127228;28;20229;-49
2022/08/26 11:47:25;;;;;;;16.00;6.37;;;;;;;;;;5127500;28;20752;-49
2022/08/26 11:50:05;;;;;;;16.17;6.33;;;;;;;;;;5129162;28;20658;-49
2022/08/26 11:52:31;;;;;;;16.57;6.60;;;;;;;;;;5129413;28;20206;-49
2022/08/26 11:55:01;;;;;;;18.07;6.47;;;;;;;;;;5128811;28;20214;-53
2022/08/26 11:57:30;;;;;;;14.47;6.57;;;;;;;;;;5128914;28;20187;-49
2022/08/26 11:59:56;;;;;;;14.93;7.27;;;;;;;;;;5128961;28;20286;-50
2022/08/26 12:02:23;;;;;;;16.83;6.47;;;;;;;;;;5129025;28;20204;-51
2022/08/26 12:04:50;;;;;;;18.77;6.50;;;;;;;;;;5128979;28;20607;-50
2022/08/26 12:07:17;;;;;;;16.00;6.80;;;;;;;;;;5128731;28;20281;-50
2022/08/26 12:09:57;;;;;;;14.83;6.43;;;;;;;;;;5128950;28;20203;-50
2022/08/26 12:12:24;;;;;;;17.77;6.43;;;;;;;;;;5129062;28;20228;-50
2022/08/26 12:15:05;;;;;;;17.63;6.50;;;;;;;;;;5128903;28;20201;-50
2022/08/26 12:17:31;;;;;;;18.03;6.87;;;;;;;;;;5124734;28;20274;-50
2022/08/26 12:19:57;;;;;;;14.47;6.77;;;;;;;;;;5114908;28;20195;-50
2022/08/26 12:22:24;;;;;;;13.23;6.43;;;;;;;;;;5115068;28;20707;-50
2022/08/26 12:24:52;;;;;;;10.67;6.37;;;;;;;;;;5115118;28;20205;-50
2022/08/26 12:27:21;;;;;;;11.80;5.77;;;;;;;;;;5114791;28;20233;-50
2022/08/26 12:29:59;;;;;;;14.03;6.70;;;;;;;;;;5114035;28;20713;-50
2022/08/26 12:32:30;;;;;;;16.63;6.10;;;;;;;;;;5114323;28;20204;-50
2022/08/26 12:34:56;;;;;;;12.87;5.93;;;;;;;;;;5114253;28;20268;-50
2022/08/26 12:37:22;;;;;;;11.37;5.63;;;;;;;;;;5114627;28;20247;-49
2022/08/26 12:39:48;;;;;;;10.57;5.50;;;;;;;;;;5114632;28;20242;-49
2022/08/26 12:42:22;;;;;;;14.50;5.77;;;;;;;;;;5114544;28;20542;-50
2022/08/26 12:44:49;;;;;;;11.60;5.93;;;;;;;;;;5113784;28;20297;-50
2022/08/26 12:47:21;;;;;;;8.30;5.50;;;;;;;;;;5114079;28;20787;-50
2022/08/26 12:49:49;;;;;;;10.03;5.50;;;;;;;;;;5114494;28;20239;-49
2022/08/26 12:52:28;;;;;;;10.90;5.50;;;;;;;;;;5114296;28;20211;-49
2022/08/26 12:54:58;;;;;;;9.77;5.53;;;;;;;;;;5114420;28;20205;-48
2022/08/26 12:57:25;;;;;;;9.33;6.10;;;;;;;;;;5114501;28;20193;-49
2022/08/26 12:59:51;;;;;;;16.43;6.50;;;;;;;;;;5114044;28;20361;-49
2022/08/26 13:02:32;;;;;;;10.63;6.30;;;;;;;;;;5114751;28;20620;-49
2022/08/26 13:05:00;;;;;;;14.13;5.93;;;;;;;;;;5114540;28;20673;-48
2022/08/26 13:07:26;;;;;;;13.17;6.03;;;;;;;;;;5114399;28;20259;-50
2022/08/26 13:09:53;;;;;;;11.50;5.43;;;;;;;;;;5114452;28;20225;-50
2022/08/26 13:12:23;;;;;;;10.57;5.70;;;;;;;;;;5114233;28;20214;-49
2022/08/26 13:14:49;;;;;;;15.13;6.10;;;;;;;;;;5113794;28;20215;-50
2022/08/26 13:17:15;;;;;;;11.63;5.77;;;;;;;;;;5113420;28;20567;-49
2022/08/26 13:19:42;;;;;;;18.83;6.83;;;;;;;;;;5112405;28;20239;-49
2022/08/26 13:22:11;;;;;;;10.03;6.10;;;;;;;;;;5110320;28;20248;-50
2022/08/26 13:24:39;;;;;;;9.97;6.00;;;;;;;;;;5112664;28;20229;-49
2022/08/26 13:27:06;;;;;;;15.03;6.00;;;;;;;;;;5113235;28;20258;-49
2022/08/26 13:29:32;;;;;;;8.20;5.43;;;;;;;;;;5111648;28;20209;-50
2022/08/26 13:31:58;;;;;;;11.00;5.13;;;;;;;;;;5111102;28;20205;-49
2022/08/26 13:34:24;;;;;;;7.83;4.90;;;;;;;;;;5113045;28;20217;-49
2022/08/26 13:36:52;;;;;;;7.77;5.60;;;;;;;;;;5112630;28;20565;-49
2022/08/26 13:39:20;;;;;;;10.10;5.83;;;;;;;;;;5113242;28;20247;-49
2022/08/26 13:41:46;;;;;;;10.03;6.03;;;;;;;;;;5110644;28;20570;-49
2022/08/26 13:44:13;;;;;;;11.70;6.20;;;;;;;;;;5110973;28;20209;-49
2022/08/26 13:46:39;;;;;;;9.07;5.60;;;;;;;;;;5113588;28;20228;-50
2022/08/26 13:49:05;;;;;;;6.40;5.77;;;;;;;;;;5113300;28;20193;-49
2022/08/26 13:51:31;;;;;;;11.17;6.17;;;;;;;;;;5113544;28;20197;-50
2022/08/26 13:53:57;;;;;;;13.70;6.20;;;;;;;;;;5113392;28;20269;-49
2022/08/26 13:56:26;;;;;;;10.83;5.83;;;;;;;;;;5113347;28;20203;-49
2022/08/26 13:58:52;;;;;;;7.77;5.47;;;;;;;;;;5113148;28;20200;-48
2022/08/26 14:01:18;;;;;;;8.83;5.23;;;;;;;;;;5113238;28;20252;-48
2022/08/26 14:03:45;;;;;;;10.83;5.50;;;;;;;;;;5112785;28;20294;-48
2022/08/26 14:06:11;;;;;;;6.67;5.03;;;;;;;;;;5112929;28;20236;-49
2022/08/26 14:08:37;;;;;;;8.17;5.40;;;;;;;;;;5113141;28;20845;-48
2022/08/26 14:11:03;;;;;;;5.47;4.40;;;;;;;;;;5112863;28;20248;-49
2022/08/26 14:13:31;;;;;;;9.37;4.40;;;;;;;;;;5112885;28;20599;-49
2022/08/26 14:16:00;;;;;;;5.70;4.13;;;;;;;;;;5112550;28;20202;-49
2022/08/26 14:18:28;;;;;;;5.13;3.90;;;;;;;;;;5113103;28;20201;-49
2022/08/26 14:20:54;;;;;;;7.33;4.77;;;;;;;;;;5112500;28;20225;-49
2022/08/26 14:23:21;;;;;;;7.80;5.80;;;;;;;;;;5112668;28;20687;-49
2022/08/26 14:25:47;;;;;;;8.17;4.93;;;;;;;;;;5112831;28;20194;-48
2022/08/26 14:28:13;;;;;;;7.60;5.37;;;;;;;;;;5112747;28;20218;-50
2022/08/26 14:30:41;;;;;;;7.20;4.50;;;;;;;;;;5112862;28;20671;-48
2022/08/26 14:33:10;;;;;;;7.47;4.60;;;;;;;;;;5112513;28;20731;-49
2022/08/26 14:35:36;;;;;;;7.30;4.10;;;;;;;;;;5112357;28;20225;-48
2022/08/26 14:38:01;;;;;;;5.27;4.77;;;;;;;;;;5112374;28;20194;-49
2022/08/26 14:40:28;;;;;;;7.90;5.10;;;;;;;;;;5112422;28;20816;-50
2022/08/26 14:42:56;;;;;;;5.70;4.83;;;;;;;;;;5112277;28;20260;-48
2022/08/26 14:45:24;;;;;;;9.30;5.43;;;;;;;;;;5112233;28;20207;-48
2022/08/26 14:47:52;;;;;;;7.10;5.83;;;;;;;;;;5112348;28;20245;-48
2022/08/26 14:50:19;;;;;;;21.83;8.80;;;;;;;;;;5112528;28;20206;-48
2022/08/26 14:55:31;;;;;;;9.90;6.03;;;;;;;;;;5112774;28;20196;-49